sensor_id;sensor_type;location;lat;lon;timestamp;pressure;altitude;pressure_sealevel;temperature;humidity
85376;BME280;75780;43.986;22.860;2024-03-22T00:01:50;101692.75;;;6.15;73.59
85376;BME280;75780;43.986;22.860;2024-03-22T00:04:16;101678.78;;;5.99;73.82
85376;BME280;75780;43.986;22.860;2024-03-22T00:06:43;101696.94;;;6.08;73.70
85376;BME280;75780;43.986;22.860;2024-03-22T00:09:09;101666.56;;;5.86;73.67
85376;BME280;75780;43.986;22.860;2024-03-22T00:11:34;101670.72;;;5.81;73.52
85376;BME280;75780;43.986;22.860;2024-03-22T00:14:01;101638.47;;;5.50;74.37
85376;BME280;75780;43.986;22.860;2024-03-22T00:16:27;101712.75;;;5.81;74.42
85376;BME280;75780;43.986;22.860;2024-03-22T00:18:52;101627.72;;;5.26;74.54
85376;BME280;75780;43.986;22.860;2024-03-22T00:21:18;101698.78;;;5.69;74.79
85376;BME280;75780;43.986;22.860;2024-03-22T00:23:45;101700.28;;;5.56;75.21
85376;BME280;75780;43.986;22.860;2024-03-22T00:26:10;101706.25;;;5.54;75.38
85376;BME280;75780;43.986;22.860;2024-03-22T00:28:36;101691.47;;;5.43;75.87
85376;BME280;75780;43.986;22.860;2024-03-22T00:31:01;101706.16;;;5.51;76.52
85376;BME280;75780;43.986;22.860;2024-03-22T00:33:26;101647.16;;;5.10;76.38
85376;BME280;75780;43.986;22.860;2024-03-22T00:35:52;101701.59;;;5.34;76.23
85376;BME280;75780;43.986;22.860;2024-03-22T00:38:17;101713.63;;;5.37;76.64
85376;BME280;75780;43.986;22.860;2024-03-22T00:40:43;101703.09;;;5.25;76.79
85376;BME280;75780;43.986;22.860;2024-03-22T00:43:08;101715.09;;;5.26;77.27
85376;BME280;75780;43.986;22.860;2024-03-22T00:45:34;101723.66;;;5.25;77.35
85376;BME280;75780;43.986;22.860;2024-03-22T00:47:59;101719.19;;;5.16;78.04
85376;BME280;75780;43.986;22.860;2024-03-22T00:50:25;101718.94;;;5.04;77.90
85376;BME280;75780;43.986;22.860;2024-03-22T00:52:51;101730.25;;;5.12;78.01
85376;BME280;75780;43.986;22.860;2024-03-22T00:55:18;101684.91;;;4.74;77.86
85376;BME280;75780;43.986;22.860;2024-03-22T00:57:43;101677.00;;;4.65;78.11
85376;BME280;75780;43.986;22.860;2024-03-22T01:00:09;101715.00;;;4.81;78.37
85376;BME280;75780;43.986;22.860;2024-03-22T01:02:35;101723.34;;;4.71;78.25
85376;BME280;75780;43.986;22.860;2024-03-22T01:05:00;101691.25;;;4.51;78.55
85376;BME280;75780;43.986;22.860;2024-03-22T01:07:26;101712.91;;;4.63;78.38
85376;BME280;75780;43.986;22.860;2024-03-22T01:09:51;101687.63;;;4.43;78.61
85376;BME280;75780;43.986;22.860;2024-03-22T01:12:16;101728.28;;;4.63;79.52
85376;BME280;75780;43.986;22.860;2024-03-22T01:14:42;101732.63;;;4.64;79.22
85376;BME280;75780;43.986;22.860;2024-03-22T01:17:07;101733.22;;;4.54;79.87
85376;BME280;75780;43.986;22.860;2024-03-22T01:19:33;101698.56;;;4.36;79.15
85376;BME280;75780;43.986;22.860;2024-03-22T01:21:58;101743.81;;;4.68;79.17
85376;BME280;75780;43.986;22.860;2024-03-22T01:24:24;101729.03;;;4.58;79.87
85376;BME280;75780;43.986;22.860;2024-03-22T01:26:49;101732.44;;;4.57;79.29
85376;BME280;75780;43.986;22.860;2024-03-22T01:29:15;101693.28;;;4.30;80.02
85376;BME280;75780;43.986;22.860;2024-03-22T01:31:40;101698.56;;;4.34;79.18
85376;BME280;75780;43.986;22.860;2024-03-22T01:34:05;101672.56;;;4.21;79.04
85376;BME280;75780;43.986;22.860;2024-03-22T01:36:31;101746.34;;;4.66;78.71
85376;BME280;75780;43.986;22.860;2024-03-22T01:38:56;101758.50;;;4.73;79.24
85376;BME280;75780;43.986;22.860;2024-03-22T01:41:22;101750.50;;;4.61;78.74
85376;BME280;75780;43.986;22.860;2024-03-22T01:43:47;101727.31;;;4.57;78.77
85376;BME280;75780;43.986;22.860;2024-03-22T01:46:13;101703.00;;;4.41;79.46
85376;BME280;75780;43.986;22.860;2024-03-22T01:48:39;101766.00;;;4.66;79.03
85376;BME280;75780;43.986;22.860;2024-03-22T01:51:05;101708.91;;;4.39;79.08
85376;BME280;75780;43.986;22.860;2024-03-22T01:53:31;101762.56;;;4.65;79.40
85376;BME280;75780;43.986;22.860;2024-03-22T01:55:56;101768.66;;;4.69;78.78
85376;BME280;75780;43.986;22.860;2024-03-22T01:58:22;101759.09;;;4.62;79.05
85376;BME280;75780;43.986;22.860;2024-03-22T02:00:48;101768.75;;;4.72;79.29
85376;BME280;75780;43.986;22.860;2024-03-22T02:03:14;101746.84;;;4.50;79.41
85376;BME280;75780;43.986;22.860;2024-03-22T02:05:39;101725.34;;;4.47;79.45
85376;BME280;75780;43.986;22.860;2024-03-22T02:08:05;101717.22;;;4.29;79.33
85376;BME280;75780;43.986;22.860;2024-03-22T02:10:30;101709.47;;;4.27;79.99
85376;BME280;75780;43.986;22.860;2024-03-22T02:12:56;101704.22;;;4.21;79.08
85376;BME280;75780;43.986;22.860;2024-03-22T02:15:22;101779.09;;;4.41;79.38
85376;BME280;75780;43.986;22.860;2024-03-22T02:17:47;101697.75;;;3.70;80.05
85376;BME280;75780;43.986;22.860;2024-03-22T02:20:12;101774.84;;;4.08;80.04
85376;BME280;75780;43.986;22.860;2024-03-22T02:22:38;101751.44;;;3.95;80.12
85376;BME280;75780;43.986;22.860;2024-03-22T02:25:04;101750.81;;;3.72;80.76
85376;BME280;75780;43.986;22.860;2024-03-22T02:27:29;101773.53;;;3.91;81.66
85376;BME280;75780;43.986;22.860;2024-03-22T02:29:55;101760.25;;;3.73;81.41
85376;BME280;75780;43.986;22.860;2024-03-22T02:32:21;101769.06;;;3.83;80.82
85376;BME280;75780;43.986;22.860;2024-03-22T02:34:46;101754.53;;;3.83;81.04
85376;BME280;75780;43.986;22.860;2024-03-22T02:37:11;101784.56;;;3.87;80.51
85376;BME280;75780;43.986;22.860;2024-03-22T02:39:37;101774.31;;;3.87;80.33
85376;BME280;75780;43.986;22.860;2024-03-22T02:42:02;101782.09;;;3.90;81.29
85376;BME280;75780;43.986;22.860;2024-03-22T02:44:28;101734.38;;;3.64;80.14
85376;BME280;75780;43.986;22.860;2024-03-22T02:46:53;101762.84;;;3.75;80.62
85376;BME280;75780;43.986;22.860;2024-03-22T02:49:19;101767.84;;;3.70;81.03
85376;BME280;75780;43.986;22.860;2024-03-22T02:51:44;101734.16;;;3.27;81.58
85376;BME280;75780;43.986;22.860;2024-03-22T02:54:10;101742.81;;;3.30;80.36
85376;BME280;75780;43.986;22.860;2024-03-22T02:56:35;101734.03;;;3.22;81.11
85376;BME280;75780;43.986;22.860;2024-03-22T02:59:01;101703.88;;;2.83;81.06
85376;BME280;75780;43.986;22.860;2024-03-22T03:01:26;101787.88;;;3.24;80.98
85376;BME280;75780;43.986;22.860;2024-03-22T03:03:52;101784.94;;;3.40;81.16
85376;BME280;75780;43.986;22.860;2024-03-22T03:06:17;101792.06;;;3.50;80.23
85376;BME280;75780;43.986;22.860;2024-03-22T03:08:45;101783.19;;;3.39;80.61
85376;BME280;75780;43.986;22.860;2024-03-22T03:11:11;101739.72;;;3.12;80.21
85376;BME280;75780;43.986;22.860;2024-03-22T03:13:36;101786.47;;;3.33;81.64
85376;BME280;75780;43.986;22.860;2024-03-22T03:16:02;101734.72;;;2.87;82.56
85376;BME280;75780;43.986;22.860;2024-03-22T03:18:28;101791.25;;;3.21;81.39
85376;BME280;75780;43.986;22.860;2024-03-22T03:20:53;101795.63;;;3.25;82.99
85376;BME280;75780;43.986;22.860;2024-03-22T03:23:19;101796.13;;;3.14;82.70
85376;BME280;75780;43.986;22.860;2024-03-22T03:25:45;101732.03;;;2.83;81.97
85376;BME280;75780;43.986;22.860;2024-03-22T03:28:11;101729.41;;;2.81;82.94
85376;BME280;75780;43.986;22.860;2024-03-22T03:30:38;101802.03;;;3.11;83.51
85376;BME280;75780;43.986;22.860;2024-03-22T03:33:03;101701.25;;;2.53;83.91
85376;BME280;75780;43.986;22.860;2024-03-22T03:35:28;101800.94;;;3.05;84.06
85376;BME280;75780;43.986;22.860;2024-03-22T03:37:55;101792.19;;;2.97;84.00
85376;BME280;75780;43.986;22.860;2024-03-22T03:40:20;101756.25;;;2.94;83.19
85376;BME280;75780;43.986;22.860;2024-03-22T03:42:47;101760.13;;;2.81;83.61
85376;BME280;75780;43.986;22.860;2024-03-22T03:45:12;101798.34;;;3.03;83.44
85376;BME280;75780;43.986;22.860;2024-03-22T03:47:38;101752.13;;;2.70;83.29
85376;BME280;75780;43.986;22.860;2024-03-22T03:50:03;101735.03;;;2.69;83.13
85376;BME280;75780;43.986;22.860;2024-03-22T03:52:29;101781.69;;;2.88;84.33
85376;BME280;75780;43.986;22.860;2024-03-22T03:54:54;101792.28;;;3.00;84.38
85376;BME280;75780;43.986;22.860;2024-03-22T03:57:20;101811.41;;;3.11;84.22
85376;BME280;75780;43.986;22.860;2024-03-22T03:59:45;101747.91;;;2.72;83.58
85376;BME280;75780;43.986;22.860;2024-03-22T04:02:11;101788.16;;;3.05;82.60
85376;BME280;75780;43.986;22.860;2024-03-22T04:04:36;101809.78;;;3.14;84.27
85376;BME280;75780;43.986;22.860;2024-03-22T04:07:02;101793.38;;;3.08;83.36
85376;BME280;75780;43.986;22.860;2024-03-22T04:09:27;101728.25;;;2.71;83.64
85376;BME280;75780;43.986;22.860;2024-03-22T04:11:53;101760.44;;;2.92;84.20
85376;BME280;75780;43.986;22.860;2024-03-22T04:14:18;101804.81;;;3.19;83.33
85376;BME280;75780;43.986;22.860;2024-03-22T04:16:43;101701.34;;;2.56;83.03
85376;BME280;75780;43.986;22.860;2024-03-22T04:19:09;101739.16;;;2.93;83.45
85376;BME280;75780;43.986;22.860;2024-03-22T04:21:34;101734.59;;;2.83;83.89
85376;BME280;75780;43.986;22.860;2024-03-22T04:23:59;101814.00;;;3.12;84.39
85376;BME280;75780;43.986;22.860;2024-03-22T04:26:25;101810.34;;;3.04;83.11
85376;BME280;75780;43.986;22.860;2024-03-22T04:28:50;101759.97;;;2.77;84.52
85376;BME280;75780;43.986;22.860;2024-03-22T04:31:16;101758.91;;;2.68;83.93
85376;BME280;75780;43.986;22.860;2024-03-22T04:33:41;101779.75;;;2.81;84.52
85376;BME280;75780;43.986;22.860;2024-03-22T04:36:07;101825.66;;;3.03;83.93
85376;BME280;75780;43.986;22.860;2024-03-22T04:38:34;101776.75;;;2.67;83.54
85376;BME280;75780;43.986;22.860;2024-03-22T04:41:00;101822.16;;;3.01;83.77
85376;BME280;75780;43.986;22.860;2024-03-22T04:43:28;101765.25;;;2.54;83.18
85376;BME280;75780;43.986;22.860;2024-03-22T04:45:54;101830.69;;;3.00;82.73
85376;BME280;75780;43.986;22.860;2024-03-22T04:48:21;101803.69;;;2.83;82.12
85376;BME280;75780;43.986;22.860;2024-03-22T04:50:47;101822.28;;;3.04;80.58
85376;BME280;75780;43.986;22.860;2024-03-22T04:53:17;101828.41;;;2.82;78.48
85376;BME280;75780;43.986;22.860;2024-03-22T04:55:43;101826.28;;;2.69;79.24
85376;BME280;75780;43.986;22.860;2024-03-22T04:58:14;101825.13;;;2.86;78.13
85376;BME280;75780;43.986;22.860;2024-03-22T05:00:40;101792.63;;;2.84;78.55
85376;BME280;75780;43.986;22.860;2024-03-22T05:03:06;101814.72;;;2.80;77.64
85376;BME280;75780;43.986;22.860;2024-03-22T05:05:31;101796.03;;;2.83;77.02
85376;BME280;75780;43.986;22.860;2024-03-22T05:07:57;101847.50;;;3.48;76.70
85376;BME280;75780;43.986;22.860;2024-03-22T05:10:22;101848.91;;;3.37;76.05
85376;BME280;75780;43.986;22.860;2024-03-22T05:12:47;101849.06;;;3.71;75.09
85376;BME280;75780;43.986;22.860;2024-03-22T05:15:13;101825.81;;;3.96;73.93
85376;BME280;75780;43.986;22.860;2024-03-22T05:17:38;101803.84;;;5.10;69.81
85376;BME280;75780;43.986;22.860;2024-03-22T05:20:05;101842.72;;;6.04;66.43
85376;BME280;75780;43.986;22.860;2024-03-22T05:22:32;101868.22;;;6.39;65.20
85376;BME280;75780;43.986;22.860;2024-03-22T05:24:57;101866.09;;;7.17;63.29
85376;BME280;75780;43.986;22.860;2024-03-22T05:27:23;101810.44;;;7.31;59.58
85376;BME280;75780;43.986;22.860;2024-03-22T05:29:48;101821.13;;;6.46;63.27
85376;BME280;75780;43.986;22.860;2024-03-22T05:32:14;101808.25;;;7.00;61.40
85376;BME280;75780;43.986;22.860;2024-03-22T05:34:40;101824.00;;;7.84;58.46
85376;BME280;75780;43.986;22.860;2024-03-22T05:37:05;101834.41;;;7.24;60.24
85376;BME280;75780;43.986;22.860;2024-03-22T05:39:31;101882.16;;;7.58;60.68
85376;BME280;75780;43.986;22.860;2024-03-22T05:41:56;101835.66;;;6.95;60.48
85376;BME280;75780;43.986;22.860;2024-03-22T05:44:22;101820.78;;;7.35;60.38
85376;BME280;75780;43.986;22.860;2024-03-22T05:46:47;101832.47;;;7.09;61.88
85376;BME280;75780;43.986;22.860;2024-03-22T05:49:13;101882.16;;;7.61;61.22
85376;BME280;75780;43.986;22.860;2024-03-22T05:51:38;101886.31;;;8.17;58.66
85376;BME280;75780;43.986;22.860;2024-03-22T05:54:04;101831.13;;;8.07;58.13
85376;BME280;75780;43.986;22.860;2024-03-22T05:56:29;101839.72;;;7.36;61.32
85376;BME280;75780;43.986;22.860;2024-03-22T05:58:55;101886.63;;;9.50;57.09
85376;BME280;75780;43.986;22.860;2024-03-22T06:01:20;101870.88;;;9.16;57.62
85376;BME280;75780;43.986;22.860;2024-03-22T06:03:46;101874.03;;;8.81;57.40
85376;BME280;75780;43.986;22.860;2024-03-22T06:06:11;101825.34;;;7.55;61.40
85376;BME280;75780;43.986;22.860;2024-03-22T06:08:37;101887.78;;;10.14;55.46
85376;BME280;75780;43.986;22.860;2024-03-22T06:11:05;101896.47;;;10.31;53.65
85376;BME280;75780;43.986;22.860;2024-03-22T06:13:32;101881.84;;;10.55;53.15
85376;BME280;75780;43.986;22.860;2024-03-22T06:15:58;101886.84;;;10.04;53.98
85376;BME280;75780;43.986;22.860;2024-03-22T06:18:23;101856.81;;;8.80;58.69
85376;BME280;75780;43.986;22.860;2024-03-22T06:20:49;101853.13;;;7.75;60.25
85376;BME280;75780;43.986;22.860;2024-03-22T06:23:14;101903.63;;;9.16;57.30
85376;BME280;75780;43.986;22.860;2024-03-22T06:25:39;101910.50;;;9.12;57.64
85376;BME280;75780;43.986;22.860;2024-03-22T06:28:05;101850.63;;;7.83;60.87
85376;BME280;75780;43.986;22.860;2024-03-22T06:30:30;101893.50;;;7.73;62.58
85376;BME280;75780;43.986;22.860;2024-03-22T06:32:56;101917.84;;;7.30;63.84
85376;BME280;75780;43.986;22.860;2024-03-22T06:35:21;101816.47;;;7.31;61.58
85376;BME280;75780;43.986;22.860;2024-03-22T06:37:47;101908.28;;;7.23;64.54
85376;BME280;75780;43.986;22.860;2024-03-22T06:40:14;101869.03;;;7.41;63.26
85376;BME280;75780;43.986;22.860;2024-03-22T06:42:39;101863.75;;;6.77;65.88
85376;BME280;75780;43.986;22.860;2024-03-22T06:45:06;101924.00;;;7.40;65.24
85376;BME280;75780;43.986;22.860;2024-03-22T06:47:31;101923.31;;;7.52;65.22
85376;BME280;75780;43.986;22.860;2024-03-22T06:49:57;101917.78;;;7.87;63.48
85376;BME280;75780;43.986;22.860;2024-03-22T06:52:23;101917.66;;;7.78;64.20
85376;BME280;75780;43.986;22.860;2024-03-22T06:54:48;101932.16;;;7.67;63.99
85376;BME280;75780;43.986;22.860;2024-03-22T06:57:14;101927.53;;;7.45;65.45
85376;BME280;75780;43.986;22.860;2024-03-22T06:59:39;101923.25;;;7.47;64.28
85376;BME280;75780;43.986;22.860;2024-03-22T07:02:05;101893.06;;;7.40;63.57
85376;BME280;75780;43.986;22.860;2024-03-22T07:04:30;101862.75;;;7.24;65.19
85376;BME280;75780;43.986;22.860;2024-03-22T07:06:55;101864.41;;;7.19;66.35
85376;BME280;75780;43.986;22.860;2024-03-22T07:09:21;101865.69;;;7.51;64.36
85376;BME280;75780;43.986;22.860;2024-03-22T07:11:46;101861.97;;;7.95;64.46
85376;BME280;75780;43.986;22.860;2024-03-22T07:14:12;101845.19;;;8.32;62.39
85376;BME280;75780;43.986;22.860;2024-03-22T07:16:37;101910.22;;;8.81;61.20
85376;BME280;75780;43.986;22.860;2024-03-22T07:19:03;101894.41;;;8.47;61.50
85376;BME280;75780;43.986;22.860;2024-03-22T07:21:30;101902.94;;;8.37;62.46
85376;BME280;75780;43.986;22.860;2024-03-22T07:23:56;101909.84;;;8.41;62.13
85376;BME280;75780;43.986;22.860;2024-03-22T07:26:21;101889.50;;;8.74;60.80
85376;BME280;75780;43.986;22.860;2024-03-22T07:28:46;101871.22;;;8.55;61.33
85376;BME280;75780;43.986;22.860;2024-03-22T07:31:12;101905.31;;;9.11;59.61
85376;BME280;75780;43.986;22.860;2024-03-22T07:33:37;101911.34;;;9.10;58.57
85376;BME280;75780;43.986;22.860;2024-03-22T07:36:04;101900.78;;;8.84;58.99
85376;BME280;75780;43.986;22.860;2024-03-22T07:38:30;101805.66;;;8.41;58.84
85376;BME280;75780;43.986;22.860;2024-03-22T07:40:55;101843.84;;;8.76;59.20
85376;BME280;75780;43.986;22.860;2024-03-22T07:43:21;101907.09;;;9.16;59.76
85376;BME280;75780;43.986;22.860;2024-03-22T07:45:46;101902.94;;;9.39;59.27
85376;BME280;75780;43.986;22.860;2024-03-22T07:48:12;101848.53;;;9.27;58.74
85376;BME280;75780;43.986;22.860;2024-03-22T07:50:37;101863.44;;;9.74;57.96
85376;BME280;75780;43.986;22.860;2024-03-22T07:53:03;101843.53;;;9.61;58.73
85376;BME280;75780;43.986;22.860;2024-03-22T07:55:28;101882.56;;;10.10;56.95
85376;BME280;75780;43.986;22.860;2024-03-22T07:57:54;101897.22;;;9.99;56.72
85376;BME280;75780;43.986;22.860;2024-03-22T08:00:19;101878.00;;;9.54;57.89
85376;BME280;75780;43.986;22.860;2024-03-22T08:02:45;101844.31;;;9.44;58.00
85376;BME280;75780;43.986;22.860;2024-03-22T08:05:10;101889.47;;;10.08;55.97
85376;BME280;75780;43.986;22.860;2024-03-22T08:07:36;101829.97;;;10.15;55.35
85376;BME280;75780;43.986;22.860;2024-03-22T08:10:01;101856.81;;;10.60;56.23
85376;BME280;75780;43.986;22.860;2024-03-22T08:12:27;101846.44;;;10.86;54.29
85376;BME280;75780;43.986;22.860;2024-03-22T08:14:53;101851.63;;;10.69;53.75
85376;BME280;75780;43.986;22.860;2024-03-22T08:17:18;101848.97;;;10.39;54.61
85376;BME280;75780;43.986;22.860;2024-03-22T08:19:44;101883.56;;;10.47;55.02
85376;BME280;75780;43.986;22.860;2024-03-22T08:22:10;101837.72;;;10.25;53.90
85376;BME280;75780;43.986;22.860;2024-03-22T08:24:35;101840.38;;;10.57;54.88
85376;BME280;75780;43.986;22.860;2024-03-22T08:27:01;101834.31;;;10.38;54.45
85376;BME280;75780;43.986;22.860;2024-03-22T08:29:26;101869.75;;;10.54;55.39
85376;BME280;75780;43.986;22.860;2024-03-22T08:31:52;101842.97;;;10.60;54.80
85376;BME280;75780;43.986;22.860;2024-03-22T08:34:18;101877.53;;;10.80;55.15
85376;BME280;75780;43.986;22.860;2024-03-22T08:36:44;101875.81;;;10.87;54.27
85376;BME280;75780;43.986;22.860;2024-03-22T08:39:09;101873.19;;;10.77;54.88
85376;BME280;75780;43.986;22.860;2024-03-22T08:41:36;101823.09;;;10.63;54.49
85376;BME280;75780;43.986;22.860;2024-03-22T08:44:02;101712.53;;;10.26;53.48
85376;BME280;75780;43.986;22.860;2024-03-22T08:46:27;101829.97;;;11.13;53.09
85376;BME280;75780;43.986;22.860;2024-03-22T08:48:53;101816.16;;;10.53;53.93
85376;BME280;75780;43.986;22.860;2024-03-22T08:51:19;101808.41;;;10.87;53.79
85376;BME280;75780;43.986;22.860;2024-03-22T08:53:44;101845.41;;;11.52;52.32
85376;BME280;75780;43.986;22.860;2024-03-22T08:56:10;101863.53;;;11.84;51.25
85376;BME280;75780;43.986;22.860;2024-03-22T08:58:36;101860.69;;;12.28;50.63
85376;BME280;75780;43.986;22.860;2024-03-22T09:01:01;101808.13;;;11.85;49.69
85376;BME280;75780;43.986;22.860;2024-03-22T09:03:27;101854.56;;;12.38;50.08
85376;BME280;75780;43.986;22.860;2024-03-22T09:05:53;101848.53;;;12.34;48.91
85376;BME280;75780;43.986;22.860;2024-03-22T09:08:20;101806.09;;;12.31;48.08
85376;BME280;75780;43.986;22.860;2024-03-22T09:10:47;101831.06;;;12.51;48.29
85376;BME280;75780;43.986;22.860;2024-03-22T09:13:12;101763.72;;;12.21;47.96
85376;BME280;75780;43.986;22.860;2024-03-22T09:15:38;101835.31;;;12.63;46.47
85376;BME280;75780;43.986;22.860;2024-03-22T09:18:04;101831.06;;;12.53;47.39
85376;BME280;75780;43.986;22.860;2024-03-22T09:20:30;101769.19;;;11.80;49.08
85376;BME280;75780;43.986;22.860;2024-03-22T09:22:55;101820.09;;;12.07;49.07
85376;BME280;75780;43.986;22.860;2024-03-22T09:25:23;101826.94;;;12.23;48.93
85376;BME280;75780;43.986;22.860;2024-03-22T09:27:48;101830.31;;;12.36;46.76
85376;BME280;75780;43.986;22.860;2024-03-22T09:30:14;101785.31;;;12.29;47.76
85376;BME280;75780;43.986;22.860;2024-03-22T09:32:40;101834.41;;;12.68;46.57
85376;BME280;75780;43.986;22.860;2024-03-22T09:35:06;101781.59;;;12.59;46.40
85376;BME280;75780;43.986;22.860;2024-03-22T09:37:31;101828.09;;;12.95;45.71
85376;BME280;75780;43.986;22.860;2024-03-22T09:39:58;101771.13;;;12.68;45.77
85376;BME280;75780;43.986;22.860;2024-03-22T09:42:25;101761.53;;;12.73;44.82
85376;BME280;75780;43.986;22.860;2024-03-22T09:44:51;101819.34;;;13.01;45.51
85376;BME280;75780;43.986;22.860;2024-03-22T09:47:17;101820.13;;;13.16;44.52
85376;BME280;75780;43.986;22.860;2024-03-22T09:49:44;101815.72;;;13.20;45.10
85376;BME280;75780;43.986;22.860;2024-03-22T09:52:13;101811.50;;;13.08;45.80
85376;BME280;75780;43.986;22.860;2024-03-22T09:54:41;101815.03;;;12.98;45.01
85376;BME280;75780;43.986;22.860;2024-03-22T09:57:11;101808.88;;;13.14;44.05
85376;BME280;75780;43.986;22.860;2024-03-22T09:59:38;101766.88;;;12.55;45.37
85376;BME280;75780;43.986;22.860;2024-03-22T10:02:04;101781.81;;;12.35;46.30
85376;BME280;75780;43.986;22.860;2024-03-22T10:04:30;101803.53;;;13.25;44.39
85376;BME280;75780;43.986;22.860;2024-03-22T10:06:55;101733.09;;;13.38;44.23
85376;BME280;75780;43.986;22.860;2024-03-22T10:09:31;101789.97;;;13.69;43.75
85376;BME280;75780;43.986;22.860;2024-03-22T10:11:58;101795.53;;;13.43;44.26
85376;BME280;75780;43.986;22.860;2024-03-22T10:14:23;101742.84;;;13.21;44.51
85376;BME280;75780;43.986;22.860;2024-03-22T10:16:52;101794.19;;;13.77;44.49
85376;BME280;75780;43.986;22.860;2024-03-22T10:19:21;101731.91;;;13.62;42.51
85376;BME280;75780;43.986;22.860;2024-03-22T10:21:48;101749.13;;;13.72;43.19
85376;BME280;75780;43.986;22.860;2024-03-22T10:24:24;101695.31;;;13.04;44.19
85376;BME280;75780;43.986;22.860;2024-03-22T10:26:50;101745.31;;;13.33;44.04
85376;BME280;75780;43.986;22.860;2024-03-22T10:29:15;101762.16;;;13.71;43.28
85376;BME280;75780;43.986;22.860;2024-03-22T10:31:41;101764.59;;;13.83;42.54
85376;BME280;75780;43.986;22.860;2024-03-22T10:34:08;101731.06;;;13.60;43.82
85376;BME280;75780;43.986;22.860;2024-03-22T10:36:34;101730.72;;;13.84;43.45
85376;BME280;75780;43.986;22.860;2024-03-22T10:39:00;101749.63;;;13.97;43.19
85376;BME280;75780;43.986;22.860;2024-03-22T10:41:29;101758.53;;;14.40;42.07
85376;BME280;75780;43.986;22.860;2024-03-22T10:43:54;101751.78;;;14.27;42.49
85376;BME280;75780;43.986;22.860;2024-03-22T10:46:20;101743.84;;;14.84;41.91
85376;BME280;75780;43.986;22.860;2024-03-22T10:48:47;101717.44;;;14.01;43.07
85376;BME280;75780;43.986;22.860;2024-03-22T10:51:14;101697.00;;;14.29;41.46
85376;BME280;75780;43.986;22.860;2024-03-22T10:53:41;101724.91;;;14.22;42.36
85376;BME280;75780;43.986;22.860;2024-03-22T10:56:07;101718.94;;;14.14;42.22
85376;BME280;75780;43.986;22.860;2024-03-22T10:58:39;101716.03;;;14.35;42.28
85376;BME280;75780;43.986;22.860;2024-03-22T11:01:05;101719.53;;;14.82;40.92
85376;BME280;75780;43.986;22.860;2024-03-22T11:03:30;101670.59;;;14.48;41.17
85376;BME280;75780;43.986;22.860;2024-03-22T11:05:56;101713.66;;;15.16;40.39
85376;BME280;75780;43.986;22.860;2024-03-22T11:08:29;101656.53;;;15.01;40.03
85376;BME280;75780;43.986;22.860;2024-03-22T11:11:11;101709.72;;;15.37;40.23
85376;BME280;75780;43.986;22.860;2024-03-22T11:13:39;101701.59;;;15.52;38.66
85376;BME280;75780;43.986;22.860;2024-03-22T11:16:04;101699.00;;;15.52;38.97
85376;BME280;75780;43.986;22.860;2024-03-22T11:18:30;101680.59;;;15.15;38.74
85376;BME280;75780;43.986;22.860;2024-03-22T11:20:56;101691.06;;;15.14;39.17
85376;BME280;75780;43.986;22.860;2024-03-22T11:23:21;101684.47;;;15.36;39.84
85376;BME280;75780;43.986;22.860;2024-03-22T11:25:47;101666.94;;;15.42;38.93
85376;BME280;75780;43.986;22.860;2024-03-22T11:28:12;101675.31;;;15.17;39.54
85376;BME280;75780;43.986;22.860;2024-03-22T11:30:38;101640.63;;;15.12;39.11
85376;BME280;75780;43.986;22.860;2024-03-22T11:33:04;101678.97;;;15.51;38.76
85376;BME280;75780;43.986;22.860;2024-03-22T11:35:33;101614.22;;;15.25;39.58
85376;BME280;75780;43.986;22.860;2024-03-22T11:38:00;101606.69;;;15.52;38.68
85376;BME280;75780;43.986;22.860;2024-03-22T11:40:26;101663.34;;;15.48;38.76
85376;BME280;75780;43.986;22.860;2024-03-22T11:42:54;101647.78;;;16.16;37.72
85376;BME280;75780;43.986;22.860;2024-03-22T11:45:21;101642.03;;;16.01;38.38
85376;BME280;75780;43.986;22.860;2024-03-22T11:47:47;101624.84;;;16.27;38.03
85376;BME280;75780;43.986;22.860;2024-03-22T11:50:14;101630.91;;;16.29;37.79
85376;BME280;75780;43.986;22.860;2024-03-22T11:52:43;101581.59;;;15.80;38.09
85376;BME280;75780;43.986;22.860;2024-03-22T11:55:13;101597.22;;;15.48;37.53
85376;BME280;75780;43.986;22.860;2024-03-22T11:57:39;101626.72;;;15.88;37.64
85376;BME280;75780;43.986;22.860;2024-03-22T12:00:05;101623.38;;;16.17;37.75
85376;BME280;75780;43.986;22.860;2024-03-22T12:02:35;101575.03;;;16.30;37.10
85376;BME280;75780;43.986;22.860;2024-03-22T12:05:02;101557.19;;;15.81;36.69
85376;BME280;75780;43.986;22.860;2024-03-22T12:07:28;101606.69;;;16.21;37.25
85376;BME280;75780;43.986;22.860;2024-03-22T12:09:54;101601.00;;;16.05;37.29
85376;BME280;75780;43.986;22.860;2024-03-22T12:12:21;101609.28;;;16.21;37.23
85376;BME280;75780;43.986;22.860;2024-03-22T12:14:47;101594.84;;;16.07;36.84
85376;BME280;75780;43.986;22.860;2024-03-22T12:17:13;101588.44;;;15.85;37.06
85376;BME280;75780;43.986;22.860;2024-03-22T12:19:38;101555.88;;;15.97;36.90
85376;BME280;75780;43.986;22.860;2024-03-22T12:22:04;101589.59;;;16.40;36.03
85376;BME280;75780;43.986;22.860;2024-03-22T12:24:31;101537.59;;;15.97;36.01
85376;BME280;75780;43.986;22.860;2024-03-22T12:26:57;101543.69;;;15.97;35.46
85376;BME280;75780;43.986;22.860;2024-03-22T12:29:22;101535.50;;;16.09;35.72
85376;BME280;75780;43.986;22.860;2024-03-22T12:31:49;101560.88;;;16.38;35.63
85376;BME280;75780;43.986;22.860;2024-03-22T12:34:14;101533.94;;;16.35;35.63
85376;BME280;75780;43.986;22.860;2024-03-22T12:36:40;101548.53;;;16.74;34.65
85376;BME280;75780;43.986;22.860;2024-03-22T12:39:05;101572.69;;;16.82;35.31